sensor_id;sensor_type;location;lat;lon;timestamp;temperature;humidity
58102;HTU21D;52034;51.926;6.320;2024-02-28T00:00:34;3.15;89.09
58102;HTU21D;52034;51.926;6.320;2024-02-28T00:01:36;3.14;90.15
58102;HTU21D;52034;51.926;6.320;2024-02-28T00:02:37;3.02;89.16
58102;HTU21D;52034;51.926;6.320;2024-02-28T00:03:39;3.06;89.35
58102;HTU21D;52034;51.926;6.320;2024-02-28T00:04:40;3.11;88.59
58102;HTU21D;52034;51.926;6.320;2024-02-28T00:05:43;3.05;88.73
58102;HTU21D;52034;51.926;6.320;2024-02-28T00:06:46;3.05;89.10
58102;HTU21D;52034;51.926;6.320;2024-02-28T00:07:48;3.11;89.08
58102;HTU21D;52034;51.926;6.320;2024-02-28T00:08:49;3.09;89.19
58102;HTU21D;52034;51.926;6.320;2024-02-28T00:09:52;3.04;88.83
58102;HTU21D;52034;51.926;6.320;2024-02-28T00:10:53;3.13;89.09
58102;HTU21D;52034;51.926;6.320;2024-02-28T00:11:55;3.18;88.73
58102;HTU21D;52034;51.926;6.320;2024-02-28T00:12:57;3.13;88.96
58102;HTU21D;52034;51.926;6.320;2024-02-28T00:13:59;3.02;88.01
58102;HTU21D;52034;51.926;6.320;2024-02-28T00:15:04;2.99;88.54
58102;HTU21D;52034;51.926;6.320;2024-02-28T00:16:06;2.94;88.51
58102;HTU21D;52034;51.926;6.320;2024-02-28T00:17:08;2.99;89.57
58102;HTU21D;52034;51.926;6.320;2024-02-28T00:18:09;2.89;89.09
58102;HTU21D;52034;51.926;6.320;2024-02-28T00:19:12;2.89;89.70
58102;HTU21D;52034;51.926;6.320;2024-02-28T00:20:14;3.01;90.50
58102;HTU21D;52034;51.926;6.320;2024-02-28T00:21:15;3.03;89.17
58102;HTU21D;52034;51.926;6.320;2024-02-28T00:22:17;3.05;88.60
58102;HTU21D;52034;51.926;6.320;2024-02-28T00:23:18;3.05;88.36
58102;HTU21D;52034;51.926;6.320;2024-02-28T00:24:20;2.91;88.82
58102;HTU21D;52034;51.926;6.320;2024-02-28T00:25:22;2.89;89.63
58102;HTU21D;52034;51.926;6.320;2024-02-28T00:26:23;3.00;89.08
58102;HTU21D;52034;51.926;6.320;2024-02-28T00:27:25;2.97;89.26
58102;HTU21D;52034;51.926;6.320;2024-02-28T00:28:27;2.99;89.10
58102;HTU21D;52034;51.926;6.320;2024-02-28T00:29:29;2.87;88.77
58102;HTU21D;52034;51.926;6.320;2024-02-28T00:30:30;2.91;89.50
58102;HTU21D;52034;51.926;6.320;2024-02-28T00:31:34;2.98;89.72
58102;HTU21D;52034;51.926;6.320;2024-02-28T00:32:35;3.03;89.05
58102;HTU21D;52034;51.926;6.320;2024-02-28T00:33:37;3.02;88.79
58102;HTU21D;52034;51.926;6.320;2024-02-28T00:34:38;3.00;88.73
58102;HTU21D;52034;51.926;6.320;2024-02-28T00:35:40;3.08;89.08
58102;HTU21D;52034;51.926;6.320;2024-02-28T00:36:43;3.02;88.76
58102;HTU21D;52034;51.926;6.320;2024-02-28T00:37:52;2.86;89.38
58102;HTU21D;52034;51.926;6.320;2024-02-28T00:38:54;2.96;89.24
58102;HTU21D;52034;51.926;6.320;2024-02-28T00:39:55;2.98;89.17
58102;HTU21D;52034;51.926;6.320;2024-02-28T00:40:57;2.95;89.53
58102;HTU21D;52034;51.926;6.320;2024-02-28T00:41:59;3.00;89.47
58102;HTU21D;52034;51.926;6.320;2024-02-28T00:43:00;3.04;89.46
58102;HTU21D;52034;51.926;6.320;2024-02-28T00:44:02;2.99;89.02
58102;HTU21D;52034;51.926;6.320;2024-02-28T00:45:04;3.03;89.33
58102;HTU21D;52034;51.926;6.320;2024-02-28T00:46:05;3.01;89.08
58102;HTU21D;52034;51.926;6.320;2024-02-28T00:47:12;3.01;89.44
58102;HTU21D;52034;51.926;6.320;2024-02-28T00:48:14;3.02;89.41
58102;HTU21D;52034;51.926;6.320;2024-02-28T00:49:15;2.99;89.58
58102;HTU21D;52034;51.926;6.320;2024-02-28T00:50:17;3.02;89.58
58102;HTU21D;52034;51.926;6.320;2024-02-28T00:51:19;3.05;89.50
58102;HTU21D;52034;51.926;6.320;2024-02-28T00:52:20;3.05;89.78
58102;HTU21D;52034;51.926;6.320;2024-02-28T00:53:22;3.10;89.34
58102;HTU21D;52034;51.926;6.320;2024-02-28T00:54:23;3.10;89.25
58102;HTU21D;52034;51.926;6.320;2024-02-28T00:55:26;3.14;89.32
58102;HTU21D;52034;51.926;6.320;2024-02-28T00:56:28;3.14;89.34
58102;HTU21D;52034;51.926;6.320;2024-02-28T00:57:30;3.08;89.63
58102;HTU21D;52034;51.926;6.320;2024-02-28T00:58:32;3.08;89.16
58102;HTU21D;52034;51.926;6.320;2024-02-28T00:59:33;3.11;89.29
58102;HTU21D;52034;51.926;6.320;2024-02-28T01:00:35;3.05;89.18
58102;HTU21D;52034;51.926;6.320;2024-02-28T01:01:37;2.93;89.35
58102;HTU21D;52034;51.926;6.320;2024-02-28T01:02:39;3.01;89.38
58102;HTU21D;52034;51.926;6.320;2024-02-28T01:03:41;2.94;89.44
58102;HTU21D;52034;51.926;6.320;2024-02-28T01:04:42;2.96;89.52
58102;HTU21D;52034;51.926;6.320;2024-02-28T01:05:44;3.05;89.47
58102;HTU21D;52034;51.926;6.320;2024-02-28T01:06:46;3.12;89.28
58102;HTU21D;52034;51.926;6.320;2024-02-28T01:07:48;3.10;89.38
58102;HTU21D;52034;51.926;6.320;2024-02-28T01:08:49;3.12;89.14
58102;HTU21D;52034;51.926;6.320;2024-02-28T01:09:51;3.08;89.06
58102;HTU21D;52034;51.926;6.320;2024-02-28T01:10:52;2.98;89.16
58102;HTU21D;52034;51.926;6.320;2024-02-28T01:11:54;3.06;89.18
58102;HTU21D;52034;51.926;6.320;2024-02-28T01:12:55;3.12;88.60
58102;HTU21D;52034;51.926;6.320;2024-02-28T01:13:57;3.05;89.00
58102;HTU21D;52034;51.926;6.320;2024-02-28T01:14:59;3.01;89.37
58102;HTU21D;52034;51.926;6.320;2024-02-28T01:16:00;3.00;89.36
58102;HTU21D;52034;51.926;6.320;2024-02-28T01:17:02;2.90;90.09
58102;HTU21D;52034;51.926;6.320;2024-02-28T01:18:03;2.96;89.79
58102;HTU21D;52034;51.926;6.320;2024-02-28T01:19:05;2.86;89.41
58102;HTU21D;52034;51.926;6.320;2024-02-28T01:20:07;2.95;89.41
58102;HTU21D;52034;51.926;6.320;2024-02-28T01:21:09;2.98;89.63
58102;HTU21D;52034;51.926;6.320;2024-02-28T01:22:11;3.03;89.38
58102;HTU21D;52034;51.926;6.320;2024-02-28T01:23:13;2.91;88.81
58102;HTU21D;52034;51.926;6.320;2024-02-28T01:24:14;2.96;89.28
58102;HTU21D;52034;51.926;6.320;2024-02-28T01:25:16;2.94;89.25
58102;HTU21D;52034;51.926;6.320;2024-02-28T01:26:17;2.96;89.18
58102;HTU21D;52034;51.926;6.320;2024-02-28T01:27:21;3.00;89.84
58102;HTU21D;52034;51.926;6.320;2024-02-28T01:28:23;3.03;89.37
58102;HTU21D;52034;51.926;6.320;2024-02-28T01:29:24;3.05;89.15
58102;HTU21D;52034;51.926;6.320;2024-02-28T01:30:26;3.03;89.15
58102;HTU21D;52034;51.926;6.320;2024-02-28T01:31:28;3.10;89.20
58102;HTU21D;52034;51.926;6.320;2024-02-28T01:32:29;3.01;88.74
58102;HTU21D;52034;51.926;6.320;2024-02-28T01:33:31;3.01;89.21
58102;HTU21D;52034;51.926;6.320;2024-02-28T01:34:33;2.96;89.21
58102;HTU21D;52034;51.926;6.320;2024-02-28T01:35:35;3.00;89.73
58102;HTU21D;52034;51.926;6.320;2024-02-28T01:36:36;2.99;89.42
58102;HTU21D;52034;51.926;6.320;2024-02-28T01:37:38;3.03;89.55
58102;HTU21D;52034;51.926;6.320;2024-02-28T01:38:40;3.01;89.45
58102;HTU21D;52034;51.926;6.320;2024-02-28T01:39:41;3.02;89.66
58102;HTU21D;52034;51.926;6.320;2024-02-28T01:40:46;3.06;89.41
58102;HTU21D;52034;51.926;6.320;2024-02-28T01:41:54;3.04;89.60
58102;HTU21D;52034;51.926;6.320;2024-02-28T01:43:01;3.11;89.50
58102;HTU21D;52034;51.926;6.320;2024-02-28T01:44:03;3.10;89.54
58102;HTU21D;52034;51.926;6.320;2024-02-28T01:45:05;3.09;89.77
58102;HTU21D;52034;51.926;6.320;2024-02-28T01:46:13;3.11;89.55
58102;HTU21D;52034;51.926;6.320;2024-02-28T01:47:19;3.11;90.04
58102;HTU21D;52034;51.926;6.320;2024-02-28T01:48:21;3.11;89.73
58102;HTU21D;52034;51.926;6.320;2024-02-28T01:49:23;3.15;89.92
58102;HTU21D;52034;51.926;6.320;2024-02-28T01:50:26;3.20;89.52
58102;HTU21D;52034;51.926;6.320;2024-02-28T01:51:27;3.15;89.63
58102;HTU21D;52034;51.926;6.320;2024-02-28T01:52:29;3.10;89.51
58102;HTU21D;52034;51.926;6.320;2024-02-28T01:53:31;3.11;89.76
58102;HTU21D;52034;51.926;6.320;2024-02-28T01:54:33;3.15;90.02
58102;HTU21D;52034;51.926;6.320;2024-02-28T01:55:36;3.20;89.66
58102;HTU21D;52034;51.926;6.320;2024-02-28T01:56:38;3.08;89.82
58102;HTU21D;52034;51.926;6.320;2024-02-28T01:57:40;3.10;90.21
58102;HTU21D;52034;51.926;6.320;2024-02-28T01:58:43;3.16;90.02
58102;HTU21D;52034;51.926;6.320;2024-02-28T01:59:45;3.12;90.02
58102;HTU21D;52034;51.926;6.320;2024-02-28T02:00:47;3.21;89.67
58102;HTU21D;52034;51.926;6.320;2024-02-28T02:01:49;3.08;89.76
58102;HTU21D;52034;51.926;6.320;2024-02-28T02:02:51;3.08;90.69
58102;HTU21D;52034;51.926;6.320;2024-02-28T02:03:53;3.11;90.38
58102;HTU21D;52034;51.926;6.320;2024-02-28T02:04:55;3.05;90.19
58102;HTU21D;52034;51.926;6.320;2024-02-28T02:05:59;3.12;90.14
58102;HTU21D;52034;51.926;6.320;2024-02-28T02:07:01;3.11;90.05
58102;HTU21D;52034;51.926;6.320;2024-02-28T02:08:02;3.01;90.11
58102;HTU21D;52034;51.926;6.320;2024-02-28T02:09:04;3.17;90.57
58102;HTU21D;52034;51.926;6.320;2024-02-28T02:10:06;3.11;90.57
58102;HTU21D;52034;51.926;6.320;2024-02-28T02:11:12;3.06;90.24
58102;HTU21D;52034;51.926;6.320;2024-02-28T02:12:15;3.19;90.67
58102;HTU21D;52034;51.926;6.320;2024-02-28T02:13:16;3.16;90.31
58102;HTU21D;52034;51.926;6.320;2024-02-28T02:14:18;3.08;90.26
58102;HTU21D;52034;51.926;6.320;2024-02-28T02:15:20;3.05;90.79
58102;HTU21D;52034;51.926;6.320;2024-02-28T02:16:21;3.00;90.22
58102;HTU21D;52034;51.926;6.320;2024-02-28T02:17:24;3.00;90.61
58102;HTU21D;52034;51.926;6.320;2024-02-28T02:18:25;2.97;90.95
58102;HTU21D;52034;51.926;6.320;2024-02-28T02:19:27;2.97;91.05
58102;HTU21D;52034;51.926;6.320;2024-02-28T02:20:30;2.94;90.13
58102;HTU21D;52034;51.926;6.320;2024-02-28T02:21:43;2.94;90.37
58102;HTU21D;52034;51.926;6.320;2024-02-28T02:22:50;2.99;90.51
58102;HTU21D;52034;51.926;6.320;2024-02-28T02:23:51;2.98;90.95
58102;HTU21D;52034;51.926;6.320;2024-02-28T02:24:53;2.97;90.66
58102;HTU21D;52034;51.926;6.320;2024-02-28T02:25:55;3.06;90.40
58102;HTU21D;52034;51.926;6.320;2024-02-28T02:26:57;3.06;90.45
58102;HTU21D;52034;51.926;6.320;2024-02-28T02:27:59;2.98;90.60
58102;HTU21D;52034;51.926;6.320;2024-02-28T02:29:01;3.01;91.05
58102;HTU21D;52034;51.926;6.320;2024-02-28T02:30:02;3.15;90.85
58102;HTU21D;52034;51.926;6.320;2024-02-28T02:31:05;3.19;89.96
58102;HTU21D;52034;51.926;6.320;2024-02-28T02:32:06;3.10;90.44
58102;HTU21D;52034;51.926;6.320;2024-02-28T02:33:08;3.14;90.50
58102;HTU21D;52034;51.926;6.320;2024-02-28T02:34:09;3.16;90.61
58102;HTU21D;52034;51.926;6.320;2024-02-28T02:35:11;3.14;89.74
58102;HTU21D;52034;51.926;6.320;2024-02-28T02:36:13;3.18;90.97
58102;HTU21D;52034;51.926;6.320;2024-02-28T02:37:14;3.11;89.90
58102;HTU21D;52034;51.926;6.320;2024-02-28T02:38:16;3.13;90.56
58102;HTU21D;52034;51.926;6.320;2024-02-28T02:39:17;3.14;90.00
58102;HTU21D;52034;51.926;6.320;2024-02-28T02:40:19;3.18;90.06
58102;HTU21D;52034;51.926;6.320;2024-02-28T02:41:21;3.18;90.38
58102;HTU21D;52034;51.926;6.320;2024-02-28T02:42:22;3.20;90.32
58102;HTU21D;52034;51.926;6.320;2024-02-28T02:43:24;3.15;90.26
58102;HTU21D;52034;51.926;6.320;2024-02-28T02:44:25;3.16;90.44
58102;HTU21D;52034;51.926;6.320;2024-02-28T02:45:27;3.13;90.46
58102;HTU21D;52034;51.926;6.320;2024-02-28T02:46:29;3.06;90.61
58102;HTU21D;52034;51.926;6.320;2024-02-28T02:47:30;3.09;90.48
58102;HTU21D;52034;51.926;6.320;2024-02-28T02:48:32;3.15;90.39
58102;HTU21D;52034;51.926;6.320;2024-02-28T02:49:34;3.11;90.55
58102;HTU21D;52034;51.926;6.320;2024-02-28T02:50:36;3.15;90.32
58102;HTU21D;52034;51.926;6.320;2024-02-28T02:51:38;3.14;90.40
58102;HTU21D;52034;51.926;6.320;2024-02-28T02:52:39;3.14;90.33
58102;HTU21D;52034;51.926;6.320;2024-02-28T02:53:41;3.12;90.57
58102;HTU21D;52034;51.926;6.320;2024-02-28T02:54:43;3.01;90.94
58102;HTU21D;52034;51.926;6.320;2024-02-28T02:55:44;3.03;91.06
58102;HTU21D;52034;51.926;6.320;2024-02-28T02:56:46;2.96;91.27
58102;HTU21D;52034;51.926;6.320;2024-02-28T02:57:47;2.95;91.32
58102;HTU21D;52034;51.926;6.320;2024-02-28T02:58:49;2.83;91.13
58102;HTU21D;52034;51.926;6.320;2024-02-28T02:59:51;2.93;91.71
58102;HTU21D;52034;51.926;6.320;2024-02-28T03:00:52;3.02;91.50
58102;HTU21D;52034;51.926;6.320;2024-02-28T03:01:54;3.01;91.13
58102;HTU21D;52034;51.926;6.320;2024-02-28T03:02:56;2.98;91.19
58102;HTU21D;52034;51.926;6.320;2024-02-28T03:03:57;3.09;91.08
58102;HTU21D;52034;51.926;6.320;2024-02-28T03:04:59;3.14;91.11
58102;HTU21D;52034;51.926;6.320;2024-02-28T03:06:01;3.03;90.70
58102;HTU21D;52034;51.926;6.320;2024-02-28T03:07:02;2.99;91.15
58102;HTU21D;52034;51.926;6.320;2024-02-28T03:08:04;3.10;90.74
58102;HTU21D;52034;51.926;6.320;2024-02-28T03:09:05;3.05;91.02
58102;HTU21D;52034;51.926;6.320;2024-02-28T03:10:09;3.02;91.00
58102;HTU21D;52034;51.926;6.320;2024-02-28T03:11:11;3.00;91.90
58102;HTU21D;52034;51.926;6.320;2024-02-28T03:12:13;3.03;91.37
58102;HTU21D;52034;51.926;6.320;2024-02-28T03:13:15;2.91;91.06
58102;HTU21D;52034;51.926;6.320;2024-02-28T03:14:16;2.99;91.21
58102;HTU21D;52034;51.926;6.320;2024-02-28T03:15:18;3.01;90.95
58102;HTU21D;52034;51.926;6.320;2024-02-28T03:16:19;3.02;90.67
58102;HTU21D;52034;51.926;6.320;2024-02-28T03:17:21;2.99;90.99
58102;HTU21D;52034;51.926;6.320;2024-02-28T03:18:23;3.06;91.51
58102;HTU21D;52034;51.926;6.320;2024-02-28T03:19:24;3.03;91.03
58102;HTU21D;52034;51.926;6.320;2024-02-28T03:20:26;3.12;90.87
58102;HTU21D;52034;51.926;6.320;2024-02-28T03:21:28;3.11;90.76
58102;HTU21D;52034;51.926;6.320;2024-02-28T03:22:29;3.17;91.24
58102;HTU21D;52034;51.926;6.320;2024-02-28T03:23:31;3.16;90.86
58102;HTU21D;52034;51.926;6.320;2024-02-28T03:24:33;3.11;90.82
58102;HTU21D;52034;51.926;6.320;2024-02-28T03:25:36;3.13;90.40
58102;HTU21D;52034;51.926;6.320;2024-02-28T03:26:38;3.00;91.09
58102;HTU21D;52034;51.926;6.320;2024-02-28T03:27:40;3.09;91.26
58102;HTU21D;52034;51.926;6.320;2024-02-28T03:28:42;3.12;90.88
58102;HTU21D;52034;51.926;6.320;2024-02-28T03:29:43;3.17;90.31
58102;HTU21D;52034;51.926;6.320;2024-02-28T03:30:45;3.21;90.51
58102;HTU21D;52034;51.926;6.320;2024-02-28T03:31:47;3.26;90.31
58102;HTU21D;52034;51.926;6.320;2024-02-28T03:32:48;3.28;89.95
58102;HTU21D;52034;51.926;6.320;2024-02-28T03:33:50;3.27;90.63
58102;HTU21D;52034;51.926;6.320;2024-02-28T03:34:52;3.23;90.28
58102;HTU21D;52034;51.926;6.320;2024-02-28T03:35:53;3.23;91.05
58102;HTU21D;52034;51.926;6.320;2024-02-28T03:36:55;3.27;90.34
58102;HTU21D;52034;51.926;6.320;2024-02-28T03:37:57;3.21;90.37
58102;HTU21D;52034;51.926;6.320;2024-02-28T03:38:58;3.23;89.94
58102;HTU21D;52034;51.926;6.320;2024-02-28T03:40:00;3.21;90.03
58102;HTU21D;52034;51.926;6.320;2024-02-28T03:41:02;3.24;89.92
58102;HTU21D;52034;51.926;6.320;2024-02-28T03:42:03;3.30;89.93
58102;HTU21D;52034;51.926;6.320;2024-02-28T03:43:05;3.19;89.31
58102;HTU21D;52034;51.926;6.320;2024-02-28T03:44:07;3.17;89.79
58102;HTU21D;52034;51.926;6.320;2024-02-28T03:45:09;3.16;90.08
58102;HTU21D;52034;51.926;6.320;2024-02-28T03:46:10;3.20;90.19
58102;HTU21D;52034;51.926;6.320;2024-02-28T03:47:12;3.15;90.20
58102;HTU21D;52034;51.926;6.320;2024-02-28T03:48:13;3.19;89.76
58102;HTU21D;52034;51.926;6.320;2024-02-28T03:49:15;3.10;89.54
58102;HTU21D;52034;51.926;6.320;2024-02-28T03:50:17;3.09;89.76
58102;HTU21D;52034;51.926;6.320;2024-02-28T03:51:18;3.04;90.19
58102;HTU21D;52034;51.926;6.320;2024-02-28T03:52:20;3.09;90.08
58102;HTU21D;52034;51.926;6.320;2024-02-28T03:53:21;3.01;89.41
58102;HTU21D;52034;51.926;6.320;2024-02-28T03:54:23;2.98;90.13
58102;HTU21D;52034;51.926;6.320;2024-02-28T03:55:25;2.91;89.52
58102;HTU21D;52034;51.926;6.320;2024-02-28T03:56:26;2.85;89.83
58102;HTU21D;52034;51.926;6.320;2024-02-28T03:57:28;2.83;90.69
58102;HTU21D;52034;51.926;6.320;2024-02-28T03:58:30;2.64;90.96
58102;HTU21D;52034;51.926;6.320;2024-02-28T03:59:31;2.74;91.10
58102;HTU21D;52034;51.926;6.320;2024-02-28T04:00:33;2.74;90.54
58102;HTU21D;52034;51.926;6.320;2024-02-28T04:01:34;2.74;90.50
58102;HTU21D;52034;51.926;6.320;2024-02-28T04:02:36;2.73;90.26
58102;HTU21D;52034;51.926;6.320;2024-02-28T04:03:38;2.74;90.24
58102;HTU21D;52034;51.926;6.320;2024-02-28T04:04:40;2.78;90.89
58102;HTU21D;52034;51.926;6.320;2024-02-28T04:05:41;2.71;90.50
58102;HTU21D;52034;51.926;6.320;2024-02-28T04:06:43;2.73;90.55
58102;HTU21D;52034;51.926;6.320;2024-02-28T04:07:45;2.73;90.02
58102;HTU21D;52034;51.926;6.320;2024-02-28T04:08:46;2.71;89.97
58102;HTU21D;52034;51.926;6.320;2024-02-28T04:09:48;2.74;89.79
58102;HTU21D;52034;51.926;6.320;2024-02-28T04:10:50;2.68;90.04
58102;HTU21D;52034;51.926;6.320;2024-02-28T04:11:53;2.72;90.92
58102;HTU21D;52034;51.926;6.320;2024-02-28T04:12:55;2.73;90.49
58102;HTU21D;52034;51.926;6.320;2024-02-28T04:13:57;2.68;90.75
58102;HTU21D;52034;51.926;6.320;2024-02-28T04:14:58;2.71;90.88
58102;HTU21D;52034;51.926;6.320;2024-02-28T04:16:01;2.76;90.65
58102;HTU21D;52034;51.926;6.320;2024-02-28T04:17:03;2.81;90.58
58102;HTU21D;52034;51.926;6.320;2024-02-28T04:18:04;2.69;89.29
58102;HTU21D;52034;51.926;6.320;2024-02-28T04:19:06;2.61;90.38
58102;HTU21D;52034;51.926;6.320;2024-02-28T04:20:08;2.62;90.97
58102;HTU21D;52034;51.926;6.320;2024-02-28T04:21:10;2.55;90.16
58102;HTU21D;52034;51.926;6.320;2024-02-28T04:22:12;2.58;90.34
58102;HTU21D;52034;51.926;6.320;2024-02-28T04:23:13;2.65;90.69
58102;HTU21D;52034;51.926;6.320;2024-02-28T04:24:15;2.57;90.20
58102;HTU21D;52034;51.926;6.320;2024-02-28T04:25:18;2.54;90.41
58102;HTU21D;52034;51.926;6.320;2024-02-28T04:26:20;2.51;90.31
58102;HTU21D;52034;51.926;6.320;2024-02-28T04:27:21;2.53;90.65
58102;HTU21D;52034;51.926;6.320;2024-02-28T04:28:23;2.61;90.37
58102;HTU21D;52034;51.926;6.320;2024-02-28T04:29:25;2.59;89.74
58102;HTU21D;52034;51.926;6.320;2024-02-28T04:30:27;2.64;89.61
58102;HTU21D;52034;51.926;6.320;2024-02-28T04:31:28;2.67;89.65
58102;HTU21D;52034;51.926;6.320;2024-02-28T04:32:30;2.70;89.60
58102;HTU21D;52034;51.926;6.320;2024-02-28T04:33:31;2.67;89.54
58102;HTU21D;52034;51.926;6.320;2024-02-28T04:34:33;2.44;89.81
58102;HTU21D;52034;51.926;6.320;2024-02-28T04:35:35;2.42;90.35
58102;HTU21D;52034;51.926;6.320;2024-02-28T04:36:36;2.26;90.06
58102;HTU21D;52034;51.926;6.320;2024-02-28T04:37:38;2.30;90.19
58102;HTU21D;52034;51.926;6.320;2024-02-28T04:38:39;2.32;90.44
58102;HTU21D;52034;51.926;6.320;2024-02-28T04:39:41;2.24;89.80
58102;HTU21D;52034;51.926;6.320;2024-02-28T04:40:43;2.34;90.44
58102;HTU21D;52034;51.926;6.320;2024-02-28T04:41:44;2.35;90.15
58102;HTU21D;52034;51.926;6.320;2024-02-28T04:42:46;2.42;89.60
58102;HTU21D;52034;51.926;6.320;2024-02-28T04:43:47;2.40;89.54
58102;HTU21D;52034;51.926;6.320;2024-02-28T04:44:49;2.43;89.76
58102;HTU21D;52034;51.926;6.320;2024-02-28T04:45:50;2.44;89.33
58102;HTU21D;52034;51.926;6.320;2024-02-28T04:46:52;2.45;90.06
58102;HTU21D;52034;51.926;6.320;2024-02-28T04:47:54;2.42;90.08
58102;HTU21D;52034;51.926;6.320;2024-02-28T04:48:58;2.49;90.63
58102;HTU21D;52034;51.926;6.320;2024-02-28T04:49:59;2.30;89.60
58102;HTU21D;52034;51.926;6.320;2024-02-28T04:51:01;2.20;89.72
58102;HTU21D;52034;51.926;6.320;2024-02-28T04:52:04;2.17;89.33
58102;HTU21D;52034;51.926;6.320;2024-02-28T04:53:05;2.21;90.08
58102;HTU21D;52034;51.926;6.320;2024-02-28T04:54:07;2.17;90.37
58102;HTU21D;52034;51.926;6.320;2024-02-28T04:55:09;2.23;90.00
58102;HTU21D;52034;51.926;6.320;2024-02-28T04:56:11;2.34;89.88
58102;HTU21D;52034;51.926;6.320;2024-02-28T04:57:12;2.32;89.57
58102;HTU21D;52034;51.926;6.320;2024-02-28T04:58:14;2.26;89.51
58102;HTU21D;52034;51.926;6.320;2024-02-28T04:59:16;2.27;90.04
58102;HTU21D;52034;51.926;6.320;2024-02-28T05:00:17;2.36;90.30
58102;HTU21D;52034;51.926;6.320;2024-02-28T05:01:19;2.30;89.24
58102;HTU21D;52034;51.926;6.320;2024-02-28T05:02:22;2.28;89.65
58102;HTU21D;52034;51.926;6.320;2024-02-28T05:03:24;2.35;89.95
58102;HTU21D;52034;51.926;6.320;2024-02-28T05:04:26;2.28;90.12
58102;HTU21D;52034;51.926;6.320;2024-02-28T05:05:28;2.12;89.89
58102;HTU21D;52034;51.926;6.320;2024-02-28T05:06:29;2.19;90.28
58102;HTU21D;52034;51.926;6.320;2024-02-28T05:07:31;2.23;90.39
58102;HTU21D;52034;51.926;6.320;2024-02-28T05:08:33;2.06;89.89
58102;HTU21D;52034;51.926;6.320;2024-02-28T05:09:34;2.21;91.05
58102;HTU21D;52034;51.926;6.320;2024-02-28T05:10:36;2.17;89.03
58102;HTU21D;52034;51.926;6.320;2024-02-28T05:11:38;1.91;89.92
58102;HTU21D;52034;51.926;6.320;2024-02-28T05:12:39;1.90;90.12
58102;HTU21D;52034;51.926;6.320;2024-02-28T05:13:41;1.90;90.40
58102;HTU21D;52034;51.926;6.320;2024-02-28T05:14:43;1.98;90.63
58102;HTU21D;52034;51.926;6.320;2024-02-28T05:15:44;1.86;90.25
58102;HTU21D;52034;51.926;6.320;2024-02-28T05:16:49;2.03;90.52
58102;HTU21D;52034;51.926;6.320;2024-02-28T05:17:50;2.08;90.18
58102;HTU21D;52034;51.926;6.320;2024-02-28T05:18:53;2.07;89.90
58102;HTU21D;52034;51.926;6.320;2024-02-28T05:19:55;2.10;89.79
58102;HTU21D;52034;51.926;6.320;2024-02-28T05:21:00;2.00;90.20
58102;HTU21D;52034;51.926;6.320;2024-02-28T05:22:02;2.06;89.92
58102;HTU21D;52034;51.926;6.320;2024-02-28T05:23:04;2.02;90.18
58102;HTU21D;52034;51.926;6.320;2024-02-28T05:24:06;2.07;89.89
58102;HTU21D;52034;51.926;6.320;2024-02-28T05:25:07;2.02;90.34
58102;HTU21D;52034;51.926;6.320;2024-02-28T05:26:09;2.11;90.11
58102;HTU21D;52034;51.926;6.320;2024-02-28T05:27:11;1.98;89.70
58102;HTU21D;52034;51.926;6.320;2024-02-28T05:28:13;2.03;90.13
58102;HTU21D;52034;51.926;6.320;2024-02-28T05:29:14;1.97;90.83
58102;HTU21D;52034;51.926;6.320;2024-02-28T05:30:16;2.03;90.44
58102;HTU21D;52034;51.926;6.320;2024-02-28T05:31:24;2.03;90.05
58102;HTU21D;52034;51.926;6.320;2024-02-28T05:32:26;2.02;89.81
58102;HTU21D;52034;51.926;6.320;2024-02-28T05:33:27;1.99;89.87
58102;HTU21D;52034;51.926;6.320;2024-02-28T05:34:29;1.99;90.02
58102;HTU21D;52034;51.926;6.320;2024-02-28T05:35:31;2.00;90.13
58102;HTU21D;52034;51.926;6.320;2024-02-28T05:36:33;1.91;89.90
58102;HTU21D;52034;51.926;6.320;2024-02-28T05:37:34;1.92;90.47
58102;HTU21D;52034;51.926;6.320;2024-02-28T05:38:36;1.90;90.10
58102;HTU21D;52034;51.926;6.320;2024-02-28T05:39:38;1.94;90.41
58102;HTU21D;52034;51.926;6.320;2024-02-28T05:40:42;1.86;89.76
58102;HTU21D;52034;51.926;6.320;2024-02-28T05:41:44;1.90;90.05
58102;HTU21D;52034;51.926;6.320;2024-02-28T05:42:46;1.82;90.68
58102;HTU21D;52034;51.926;6.320;2024-02-28T05:43:48;1.77;89.78
58102;HTU21D;52034;51.926;6.320;2024-02-28T05:44:49;1.69;90.24
58102;HTU21D;52034;51.926;6.320;2024-02-28T05:45:51;1.66;90.57
58102;HTU21D;52034;51.926;6.320;2024-02-28T05:46:53;1.77;90.81
58102;HTU21D;52034;51.926;6.320;2024-02-28T05:47:55;1.75;90.35
58102;HTU21D;52034;51.926;6.320;2024-02-28T05:48:56;1.78;90.66
58102;HTU21D;52034;51.926;6.320;2024-02-28T05:49:58;1.80;90.31
58102;HTU21D;52034;51.926;6.320;2024-02-28T05:51:03;1.67;90.27
58102;HTU21D;52034;51.926;6.320;2024-02-28T05:52:05;1.77;90.62
58102;HTU21D;52034;51.926;6.320;2024-02-28T05:53:06;1.71;90.36
58102;HTU21D;52034;51.926;6.320;2024-02-28T05:54:08;1.79;90.92
58102;HTU21D;52034;51.926;6.320;2024-02-28T05:55:10;1.67;90.12
58102;HTU21D;52034;51.926;6.320;2024-02-28T05:56:12;1.73;90.88
58102;HTU21D;52034;51.926;6.320;2024-02-28T05:57:17;1.78;91.20
58102;HTU21D;52034;51.926;6.320;2024-02-28T05:58:20;1.71;91.47
58102;HTU21D;52034;51.926;6.320;2024-02-28T05:59:21;1.83;90.81
58102;HTU21D;52034;51.926;6.320;2024-02-28T06:00:23;1.85;91.37
58102;HTU21D;52034;51.926;6.320;2024-02-28T06:01:25;1.91;90.77
58102;HTU21D;52034;51.926;6.320;2024-02-28T06:02:26;1.86;90.25
58102;HTU21D;52034;51.926;6.320;2024-02-28T06:03:28;1.91;90.61
58102;HTU21D;52034;51.926;6.320;2024-02-28T06:04:29;1.86;90.02
58102;HTU21D;52034;51.926;6.320;2024-02-28T06:05:31;1.77;90.93
58102;HTU21D;52034;51.926;6.320;2024-02-28T06:06:32;1.68;90.83
58102;HTU21D;52034;51.926;6.320;2024-02-28T06:07:35;1.79;91.21
58102;HTU21D;52034;51.926;6.320;2024-02-28T06:08:39;1.96;91.10
58102;HTU21D;52034;51.926;6.320;2024-02-28T06:09:41;1.95;90.30
58102;HTU21D;52034;51.926;6.320;2024-02-28T06:10:43;1.99;90.76
58102;HTU21D;52034;51.926;6.320;2024-02-28T06:11:47;1.83;90.31
58102;HTU21D;52034;51.926;6.320;2024-02-28T06:12:49;1.86;90.87
58102;HTU21D;52034;51.926;6.320;2024-02-28T06:13:51;1.97;90.18
58102;HTU21D;52034;51.926;6.320;2024-02-28T06:14:52;1.73;90.36
58102;HTU21D;52034;51.926;6.320;2024-02-28T06:15:54;1.76;90.69
58102;HTU21D;52034;51.926;6.320;2024-02-28T06:16:56;1.73;90.81
58102;HTU21D;52034;51.926;6.320;2024-02-28T06:17:57;1.81;91.19
58102;HTU21D;52034;51.926;6.320;2024-02-28T06:19:01;1.95;91.24
58102;HTU21D;52034;51.926;6.320;2024-02-28T06:20:06;1.94;90.96
58102;HTU21D;52034;51.926;6.320;2024-02-28T06:21:08;1.94;90.29
58102;HTU21D;52034;51.926;6.320;2024-02-28T06:22:09;1.95;90.31
58102;HTU21D;52034;51.926;6.320;2024-02-28T06:23:11;1.87;90.58
58102;HTU21D;52034;51.926;6.320;2024-02-28T06:24:20;1.79;91.04
58102;HTU21D;52034;51.926;6.320;2024-02-28T06:25:22;1.88;91.69
58102;HTU21D;52034;51.926;6.320;2024-02-28T06:26:25;2.03;91.55
58102;HTU21D;52034;51.926;6.320;2024-02-28T06:27:26;2.01;90.86
58102;HTU21D;52034;51.926;6.320;2024-02-28T06:28:28;1.95;90.38
58102;HTU21D;52034;51.926;6.320;2024-02-28T06:29:30;1.93;91.14
58102;HTU21D;52034;51.926;6.320;2024-02-28T06:30:31;2.01;92.11
58102;HTU21D;52034;51.926;6.320;2024-02-28T06:31:33;2.01;91.22